Time;durP1;ratioP1;P1;durP2;ratioP2;P2;SDS_P1;SDS_P2;PMS_P1;PMS_P2;Temp;Humidity;BMP_temperature;BMP_pressure;BME280_temperature;BME280_humidity;BME280_pressure;Samples;Min_cycle;Max_cycle;Signal;HPM_P1;HPM_P2
2022/06/21 00:00:37;;;;;;;0.10;0.10;;;20.30;99.90;;;;;;5053382;28;20024;-71
2022/06/21 00:03:06;;;;;;;0.10;0.10;;;20.10;99.90;;;;;;5053183;28;20473;-72
2022/06/21 00:05:35;;;;;;;0.20;0.20;;;20.10;99.90;;;;;;5053425;28;20033;-71
2022/06/21 00:08:07;;;;;;;0.03;0.03;;;20.00;99.90;;;;;;5053289;28;20411;-72
2022/06/21 00:10:36;;;;;;;0.40;0.40;;;20.20;99.90;;;;;;5053240;28;20024;-72
2022/06/21 00:13:30;;;;;;;0.10;0.10;;;20.10;99.90;;;;;;5035272;28;20025;-72
2022/06/21 00:15:59;;;;;;;0.45;0.45;;;20.00;99.90;;;;;;5050269;28;20060;-71
2022/06/21 00:18:27;;;;;;;0.00;0.00;;;20.10;99.90;;;;;;5052746;28;20499;-72
2022/06/21 00:20:53;;;;;;;0.10;0.10;;;20.50;99.90;;;;;;5053142;28;20025;-72
2022/06/21 00:23:29;;;;;;;0.00;0.00;;;20.60;99.90;;;;;;5052999;28;20028;-71
2022/06/21 00:25:56;;;;;;;1.13;0.70;;;20.50;99.90;;;;;;5052999;28;20025;-72
2022/06/21 00:28:23;;;;;;;0.05;0.05;;;20.60;99.90;;;;;;5035101;28;20155;-72
2022/06/21 00:30:50;;;;;;;0.00;0.00;;;20.60;99.90;;;;;;5052894;28;20393;-72
2022/06/21 00:33:19;;;;;;;0.10;0.10;;;20.60;99.90;;;;;;5052818;28;20052;-71
2022/06/21 00:35:47;;;;;;;0.10;0.10;;;20.60;99.90;;;;;;5052783;28;20032;-72
2022/06/21 00:38:15;;;;;;;0.10;0.10;;;20.70;99.90;;;;;;5052441;28;20033;-72
2022/06/21 00:40:42;;;;;;;0.10;0.10;;;20.90;99.90;;;;;;5052727;28;20434;-72
2022/06/21 00:43:14;;;;;;;0.00;0.00;;;21.00;99.90;;;;;;5052980;28;20021;-72
2022/06/21 00:45:43;;;;;;;0.03;0.03;;;20.90;99.90;;;;;;5052584;28;20028;-72
2022/06/21 00:48:15;;;;;;;0.00;0.00;;;20.90;99.90;;;;;;5034782;28;20028;-72
2022/06/21 00:50:50;;;;;;;0.10;0.10;;;20.60;99.90;;;;;;5018299;28;20074;-72
2022/06/21 00:53:29;;;;;;;0.10;0.10;;;20.70;99.90;;;;;;5052593;28;20029;-72
2022/06/21 00:56:03;;;;;;;0.05;0.05;;;20.50;99.90;;;;;;5052572;28;20024;-71
2022/06/21 00:58:33;;;;;;;0.40;0.40;;;20.60;99.90;;;;;;5052165;28;20100;-72
2022/06/21 01:01:20;;;;;;;0.05;0.05;;;20.70;99.90;;;;;;5052487;28;20074;-72
2022/06/21 01:04:08;;;;;;;1.02;0.68;;;20.70;99.90;;;;;;5052268;28;20019;-71
2022/06/21 01:06:39;;;;;;;0.10;0.10;;;20.40;99.90;;;;;;5051494;28;20060;-71
2022/06/21 01:09:16;;;;;;;0.10;0.10;;;20.30;99.90;;;;;;5034414;28;20075;-72
2022/06/21 01:11:50;;;;;;;0.05;0.05;;;20.20;99.90;;;;;;5052188;28;20535;-72
2022/06/21 01:14:20;;;;;;;0.10;0.10;;;20.50;99.90;;;;;;5051932;28;20028;-72
2022/06/21 01:16:46;;;;;;;0.10;0.10;;;20.70;99.90;;;;;;5052044;28;20036;-72
2022/06/21 01:19:37;;;;;;;0.10;0.10;;;20.70;99.90;;;;;;5051881;28;20412;-71
2022/06/21 01:22:24;;;;;;;0.10;0.10;;;20.60;99.90;;;;;;5042704;28;20043;-71
2022/06/21 01:25:24;;;;;;;0.10;0.10;;;20.60;99.90;;;;;;5052005;28;20100;-71
2022/06/21 01:27:54;;;;;;;0.10;0.10;;;20.30;99.90;;;;;;5051939;28;20029;-71
2022/06/21 01:30:22;;;;;;;0.45;0.45;;;20.40;99.90;;;;;;5052058;28;20048;-71
2022/06/21 01:32:48;;;;;;;0.10;0.10;;;20.40;99.90;;;;;;5051980;28;20029;-71
2022/06/21 01:35:35;;;;;;;0.10;0.10;;;20.50;99.90;;;;;;5051849;28;20522;-71
2022/06/21 01:38:05;;;;;;;0.10;0.10;;;20.50;99.90;;;;;;5033986;28;20075;-72
2022/06/21 01:40:35;;;;;;;0.05;0.05;;;20.20;99.90;;;;;;5051974;28;20522;-72
2022/06/21 01:43:06;;;;;;;1.40;1.30;;;20.00;99.90;;;;;;5051871;28;20024;-72
2022/06/21 01:45:37;;;;;;;0.10;0.10;;;19.90;99.90;;;;;;5051832;28;20020;-71
2022/06/21 01:48:14;;;;;;;0.10;0.10;;;20.20;99.90;;;;;;5051589;28;20177;-72
2022/06/21 01:50:44;;;;;;;0.10;0.10;;;20.10;99.90;;;;;;5051830;28;20020;-72
2022/06/21 01:53:12;;;;;;;0.00;0.00;;;20.20;99.90;;;;;;5051947;28;20025;-71
2022/06/21 01:55:44;;;;;;;0.00;0.00;;;20.00;99.90;;;;;;5055797;28;20079;-72
2022/06/21 01:58:13;;;;;;;0.10;0.10;;;19.80;99.90;;;;;;5055747;28;20025;-72
2022/06/21 02:00:43;;;;;;;0.00;0.00;;;19.90;99.90;;;;;;5055952;28;20480;-72
2022/06/21 02:03:15;;;;;;;0.10;0.10;;;20.00;99.90;;;;;;5055743;28;20055;-72
2022/06/21 02:05:46;;;;;;;0.10;0.10;;;20.10;99.90;;;;;;5055654;28;20017;-71
2022/06/21 02:08:15;;;;;;;0.10;0.10;;;19.70;99.90;;;;;;5055448;28;20167;-71
2022/06/21 02:10:46;;;;;;;0.10;0.10;;;19.40;99.90;;;;;;5055534;28;20135;-71
2022/06/21 02:13:17;;;;;;;0.10;0.10;;;19.30;99.90;;;;;;5055384;28;20020;-71
2022/06/21 02:15:52;;;;;;;0.10;0.10;;;19.20;99.90;;;;;;5055529;28;20112;-71
2022/06/21 02:18:20;;;;;;;0.10;0.10;;;19.10;99.90;;;;;;5037167;28;20055;-71
2022/06/21 02:20:59;;;;;;;0.10;0.10;;;18.80;99.90;;;;;;5055464;28;20021;-72
2022/06/21 02:23:26;;;;;;;0.10;0.10;;;18.80;99.90;;;;;;5055300;28;20017;-71
2022/06/21 02:25:54;;;;;;;0.10;0.10;;;18.80;99.90;;;;;;5055367;28;20024;-71
2022/06/21 02:28:21;;;;;;;0.10;0.10;;;18.90;99.90;;;;;;5037065;28;20025;-72
2022/06/21 02:30:50;;;;;;;0.10;0.10;;;19.00;99.90;;;;;;5055196;28;20064;-71
2022/06/21 02:33:28;;;;;;;0.10;0.10;;;18.80;99.90;;;;;;5055175;28;20037;-71
2022/06/21 02:36:05;;;;;;;0.20;0.20;;;18.90;99.90;;;;;;5055250;28;20036;-71
2022/06/21 02:38:42;;;;;;;0.10;0.10;;;18.50;99.90;;;;;;5037104;28;20364;-71
2022/06/21 02:41:13;;;;;;;0.40;0.40;;;18.50;99.90;;;;;;5054989;28;20476;-71
2022/06/21 02:43:44;;;;;;;0.20;0.20;;;18.50;99.90;;;;;;5037206;28;20086;-71
2022/06/21 02:46:16;;;;;;;0.13;0.13;;;18.30;99.90;;;;;;5054953;28;20021;-71
2022/06/21 02:48:54;;;;;;;0.20;0.20;;;18.30;99.90;;;;;;5054870;28;20059;-71
2022/06/21 02:51:25;;;;;;;6.60;1.30;;;18.10;99.90;;;;;;5054820;28;20036;-70
2022/06/21 02:54:17;;;;;;;0.10;0.10;;;18.00;99.90;;;;;;5036975;28;20033;-71
2022/06/21 02:56:48;;;;;;;0.20;0.20;;;18.30;99.90;;;;;;5036786;28;20037;-71
2022/06/21 02:59:15;;;;;;;0.10;0.10;;;18.40;99.90;;;;;;5037067;28;20045;-71
2022/06/21 03:01:53;;;;;;;0.10;0.10;;;18.40;99.90;;;;;;5054533;28;20067;-71
2022/06/21 03:04:50;;;;;;;0.20;0.20;;;18.50;99.90;;;;;;5036780;28;20408;-71
2022/06/21 03:07:23;;;;;;;0.20;0.20;;;18.40;99.90;;;;;;5054493;28;20031;-70
2022/06/21 03:09:51;;;;;;;0.10;0.10;;;18.40;99.90;;;;;;5054412;28;20035;-71
2022/06/21 03:12:21;;;;;;;0.10;0.10;;;18.10;99.90;;;;;;5054179;28;20399;-71
2022/06/21 03:14:49;;;;;;;0.45;0.38;;;17.90;99.90;;;;;;5054366;28;20017;-71
2022/06/21 03:17:23;;;;;;;0.00;0.00;;;18.10;99.90;;;;;;5054314;28;20021;-71
2022/06/21 03:19:53;;;;;;;0.10;0.10;;;18.20;99.90;;;;;;5036538;28;20021;-71
2022/06/21 03:22:22;;;;;;;0.10;0.10;;;18.30;99.90;;;;;;5054376;28;20063;-71
2022/06/21 03:24:51;;;;;;;0.20;0.20;;;18.40;99.90;;;;;;5019888;28;20032;-71
2022/06/21 03:27:46;;;;;;;0.10;0.10;;;18.30;99.90;;;;;;5053927;28;20380;-71
2022/06/21 03:30:12;;;;;;;0.10;0.10;;;18.60;99.90;;;;;;5036353;28;20044;-71
2022/06/21 03:32:37;;;;;;;0.10;0.10;;;18.40;99.90;;;;;;5036093;28;20392;-71
2022/06/21 03:35:05;;;;;;;0.43;0.25;;;18.40;99.90;;;;;;5036155;28;20025;-71
2022/06/21 03:37:33;;;;;;;0.10;0.10;;;18.60;99.90;;;;;;5035724;28;20389;-71
2022/06/21 03:42:47;;;;;;;0.20;0.20;;;18.50;99.90;;;;;;5053929;28;20082;-71
2022/06/21 03:45:27;;;;;;;0.20;0.20;;;18.60;99.90;;;;;;5053862;28;20129;-71
2022/06/21 03:48:17;;;;;;;0.10;0.10;;;18.40;99.90;;;;;;5066797;22;20045;-75
2022/06/21 03:51:04;;;;;;;0.10;0.10;;;18.50;99.90;;;;;;5015503;28;20045;-75
2022/06/21 03:53:45;;;;;;;0.10;0.10;;;18.40;99.90;;;;;;5033765;28;20017;-75
2022/06/21 03:56:23;;;;;;;0.10;0.10;;;18.60;99.90;;;;;;5033708;28;20037;-75
2022/06/21 03:58:58;;;;;;;0.10;0.10;;;18.70;99.90;;;;;;5015575;28;20464;-75
2022/06/21 04:01:41;;;;;;;0.10;0.10;;;18.60;99.90;;;;;;5033581;28;20025;-75
2022/06/21 04:04:13;;;;;;;0.05;0.05;;;18.70;99.90;;;;;;5015892;28;20453;-75
2022/06/21 04:06:58;;;;;;;0.10;0.10;;;18.70;99.90;;;;;;5033262;28;20429;-75
2022/06/21 04:09:44;;;;;;;0.10;0.10;;;18.40;99.90;;;;;;5033219;28;20025;-75
2022/06/21 04:12:23;;;;;;;0.00;0.00;;;18.60;99.90;;;;;;5033243;28;20024;-75
2022/06/21 04:15:02;;;;;;;0.10;0.10;;;18.80;99.90;;;;;;5033123;28;20432;-75
2022/06/21 04:18:11;;;;;;;0.10;0.10;;;18.70;99.90;;;;;;5032446;28;20025;-75
2022/06/21 04:20:37;;;;;;;0.08;0.08;;;18.60;99.90;;;;;;4996402;28;20113;-75
2022/06/21 04:23:13;;;;;;;0.10;0.10;;;18.70;99.90;;;;;;5033933;28;20095;-75
2022/06/21 04:25:48;;;;;;;0.13;0.13;;;18.60;99.90;;;;;;5015309;28;20029;-75
2022/06/21 04:28:27;;;;;;;0.10;0.10;;;18.50;99.90;;;;;;5032832;28;20029;-75
2022/06/21 04:31:18;;;;;;;0.10;0.10;;;18.20;99.90;;;;;;4998836;28;20022;-75
2022/06/21 04:33:53;;;;;;;0.10;0.10;;;18.20;99.90;;;;;;5014944;28;20501;-75
2022/06/21 04:36:35;;;;;;;0.10;0.10;;;18.00;99.90;;;;;;5032739;28;20504;-75
2022/06/21 04:39:11;;;;;;;0.75;0.75;;;18.10;99.90;;;;;;5015083;28;20489;-75
2022/06/21 04:41:42;;;;;;;0.10;0.10;;;18.20;99.90;;;;;;5032583;28;20098;-75
2022/06/21 04:44:18;;;;;;;0.13;0.13;;;18.30;99.90;;;;;;5014994;28;20028;-75
2022/06/21 04:46:54;;;;;;;0.10;0.10;;;18.50;99.90;;;;;;5032443;28;20163;-75
2022/06/21 04:49:28;;;;;;;0.10;0.10;;;18.50;99.90;;;;;;5014923;28;20029;-75
2022/06/21 04:52:03;;;;;;;0.10;0.10;;;18.70;99.90;;;;;;5032648;28;20021;-75
2022/06/21 04:54:32;;;;;;;2.17;0.65;;;18.70;99.90;;;;;;5014839;28;20485;-75
2022/06/21 04:57:20;;;;;;;0.10;0.10;;;18.90;99.90;;;;;;5032222;28;20064;-75
2022/06/21 04:59:54;;;;;;;0.00;0.00;;;19.00;99.90;;;;;;5032357;28;20047;-75
2022/06/21 05:02:30;;;;;;;0.10;0.10;;;19.00;99.90;;;;;;5032369;28;20018;-75
2022/06/21 05:05:25;;;;;;;0.05;0.05;;;18.90;99.90;;;;;;5032518;28;20385;-75
2022/06/21 05:07:57;;;;;;;0.10;0.10;;;19.00;99.90;;;;;;5030633;28;20037;-75
2022/06/21 05:10:28;;;;;;;0.10;0.10;;;18.90;99.90;;;;;;4998024;28;20401;-75
2022/06/21 05:12:57;;;;;;;0.10;0.10;;;18.70;99.90;;;;;;4996948;28;20029;-75
2022/06/21 05:15:27;;;;;;;0.10;0.10;;;18.50;99.90;;;;;;5018238;28;20493;-75
2022/06/21 05:18:01;;;;;;;0.20;0.20;;;18.10;99.90;;;;;;5032837;28;20021;-75
2022/06/21 05:20:31;;;;;;;0.10;0.10;;;18.10;99.90;;;;;;5029081;28;20500;-75
2022/06/21 05:23:01;;;;;;;0.10;0.10;;;18.30;99.90;;;;;;5032001;28;20029;-75
2022/06/21 05:25:35;;;;;;;0.10;0.10;;;18.50;99.90;;;;;;5031931;28;20032;-75
2022/06/21 05:28:29;;;;;;;0.10;0.10;;;18.30;99.90;;;;;;5013298;28;20036;-75
2022/06/21 05:31:20;;;;;;;0.10;0.10;;;18.20;99.90;;;;;;5012342;28;20100;-75
2022/06/21 05:34:19;;;;;;;0.38;0.20;;;18.30;99.90;;;;;;4994838;28;20105;-75
2022/06/21 05:36:56;;;;;;;0.10;0.10;;;18.50;99.90;;;;;;5005834;28;20033;-75
2022/06/21 05:39:30;;;;;;;0.10;0.10;;;18.70;99.90;;;;;;4994422;28;20036;-75
2022/06/21 05:41:59;;;;;;;0.10;0.10;;;18.70;99.90;;;;;;4978379;28;20052;-75
2022/06/21 05:44:49;;;;;;;0.73;0.22;;;18.60;99.90;;;;;;4978181;28;20022;-75
2022/06/21 05:47:25;;;;;;;0.10;0.10;;;18.40;99.90;;;;;;5040572;28;20480;-75
2022/06/21 05:49:51;;;;;;;0.10;0.10;;;18.40;99.90;;;;;;5033215;28;20017;-75
2022/06/21 05:52:26;;;;;;;0.10;0.10;;;18.30;99.90;;;;;;5032960;28;20017;-75
2022/06/21 05:55:00;;;;;;;0.10;0.10;;;18.30;99.90;;;;;;5032885;28;20027;-75
2022/06/21 05:57:43;;;;;;;0.10;0.10;;;18.40;99.90;;;;;;5050240;28;20029;-75
2022/06/21 06:00:29;;;;;;;0.30;0.30;;;18.50;99.90;;;;;;5050681;28;20384;-76
2022/06/21 06:03:02;;;;;;;0.10;0.10;;;18.40;99.90;;;;;;5050559;28;20018;-74
2022/06/21 06:05:31;;;;;;;0.85;0.85;;;18.10;99.90;;;;;;5050590;28;20036;-73
2022/06/21 06:08:20;;;;;;;0.00;0.00;;;17.90;99.90;;;;;;5032726;28;20425;-72
2022/06/21 06:10:47;;;;;;;0.10;0.10;;;17.90;99.90;;;;;;5051103;28;20548;-72
2022/06/21 06:13:25;;;;;;;0.17;0.17;;;17.80;99.90;;;;;;5050737;28;20389;-74
2022/06/21 06:15:53;;;;;;;0.20;0.20;;;17.90;99.90;;;;;;5032586;28;20024;-74
2022/06/21 06:18:30;;;;;;;0.10;0.10;;;17.80;99.90;;;;;;5050262;28;20021;-76
2022/06/21 06:21:11;;;;;;;0.10;0.10;;;17.70;99.90;;;;;;5022019;28;20029;-77
2022/06/21 06:23:45;;;;;;;0.40;0.40;;;17.50;99.90;;;;;;5013270;28;20485;-75
2022/06/21 06:26:25;;;;;;;0.20;0.20;;;17.70;99.90;;;;;;5012606;28;20026;-75
2022/06/21 06:29:01;;;;;;;0.20;0.20;;;17.70;99.90;;;;;;5029019;28;20033;-75
2022/06/21 06:31:39;;;;;;;0.20;0.20;;;17.70;99.90;;;;;;5030449;28;20477;-75
2022/06/21 06:34:12;;;;;;;0.10;0.10;;;17.60;99.90;;;;;;5030368;28;20485;-75
2022/06/21 06:36:43;;;;;;;0.50;0.50;;;17.70;99.90;;;;;;5028937;28;20044;-75
2022/06/21 06:39:21;;;;;;;0.10;0.10;;;17.80;99.90;;;;;;5030341;28;20026;-73
2022/06/21 06:42:18;;;;;;;0.15;0.15;;;18.00;99.90;;;;;;5033489;28;20045;-73
2022/06/21 06:44:57;;;;;;;0.10;0.10;;;17.90;99.90;;;;;;5032642;28;20037;-75
2022/06/21 06:47:32;;;;;;;0.30;0.30;;;17.80;99.90;;;;;;4961222;28;1102456;-75
2022/06/21 06:50:04;;;;;;;0.40;0.32;;;17.90;99.90;;;;;;5018560;28;20030;-75
2022/06/21 06:52:32;;;;;;;;;;;17.90;99.90;;;;;;5043797;28;20044;-74
2022/06/21 06:55:11;;;;;;;0.10;0.10;;;17.80;99.90;;;;;;5044538;28;20280;-76
2022/06/21 06:57:47;;;;;;;0.20;0.20;;;18.00;99.90;;;;;;5034239;28;20040;-74
2022/06/21 07:00:23;;;;;;;0.10;0.10;;;18.30;99.90;;;;;;5034407;28;20071;-75
2022/06/21 07:02:59;;;;;;;0.17;0.17;;;18.60;99.90;;;;;;5034402;28;20029;-74
2022/06/21 07:05:28;;;;;;;0.10;0.10;;;18.30;99.90;;;;;;5034221;28;20066;-74
2022/06/21 07:08:18;;;;;;;0.10;0.10;;;18.30;99.90;;;;;;5030543;28;20123;-74
2022/06/21 07:10:46;;;;;;;0.10;0.10;;;18.30;99.90;;;;;;5036403;28;20021;-74
2022/06/21 07:13:13;;;;;;;0.10;0.10;;;18.40;99.90;;;;;;5036175;28;20021;-74
2022/06/21 07:15:41;;;;;;;0.17;0.17;;;18.40;99.90;;;;;;5053979;28;20021;-74
2022/06/21 07:18:19;;;;;;;0.20;0.20;;;18.50;99.90;;;;;;5053907;28;20480;-74
2022/06/21 07:20:45;;;;;;;0.82;0.43;;;18.60;99.90;;;;;;5036103;28;20075;-74
2022/06/21 07:23:19;;;;;;;0.20;0.20;;;18.70;99.90;;;;;;5019696;28;20107;-74
2022/06/21 07:26:21;;;;;;;0.10;0.10;;;18.70;99.90;;;;;;5014217;28;20022;-74
2022/06/21 07:28:56;;;;;;;6.93;1.10;;;18.70;99.90;;;;;;4992517;28;20049;-74
2022/06/21 07:31:45;;;;;;;0.10;0.10;;;18.70;99.90;;;;;;4996666;28;20405;-75
2022/06/21 07:34:17;;;;;;;0.25;0.25;;;18.80;99.90;;;;;;4996605;28;20061;-74
2022/06/21 07:36:46;;;;;;;0.10;0.10;;;18.70;99.90;;;;;;5013779;28;20034;-74
2022/06/21 07:39:27;;;;;;;0.20;0.20;;;18.80;99.90;;;;;;5012593;28;20436;-74
2022/06/21 07:42:01;;;;;;;0.10;0.10;;;19.00;99.90;;;;;;5013725;28;20022;-74
2022/06/21 07:44:34;;;;;;;0.40;0.40;;;19.10;99.90;;;;;;5011431;28;20021;-74
2022/06/21 07:47:08;;;;;;;0.20;0.20;;;19.20;99.90;;;;;;5032595;28;20076;-74
2022/06/21 07:49:42;;;;;;;0.05;0.05;;;19.20;99.90;;;;;;5032402;28;20021;-74
2022/06/21 07:52:19;;;;;;;0.20;0.20;;;19.20;99.90;;;;;;5014804;28;20032;-74
2022/06/21 07:54:55;;;;;;;0.52;0.52;;;19.10;99.90;;;;;;5015494;28;20029;-74
2022/06/21 07:57:27;;;;;;;0.40;0.40;;;19.20;99.90;;;;;;5033335;28;20628;-74
2022/06/21 08:00:06;;;;;;;0.25;0.25;;;18.90;99.90;;;;;;5034761;28;20656;-74
2022/06/21 08:06:41;;;;;;;0.10;0.10;;;18.90;99.90;;;;;;5053146;28;20545;-74
2022/06/21 08:08:20;;;;;;;0.20;0.20;;;19.00;99.90;;;;;;5047571;28;20024;-74
2022/06/21 08:10:52;;;;;;;0.10;0.10;;;19.10;99.90;;;;;;5015319;28;20508;-74
2022/06/21 08:13:18;;;;;;;0.73;0.73;;;19.10;99.90;;;;;;5015270;28;20040;-74
2022/06/21 08:16:12;;;;;;;2.28;0.90;;;19.20;99.90;;;;;;5033323;28;20038;-74
2022/06/21 08:18:55;;;;;;;0.20;0.20;;;18.90;99.90;;;;;;5032709;28;20036;-74
2022/06/21 08:21:25;;;;;;;0.20;0.20;;;18.90;99.90;;;;;;5033070;28;20036;-74
2022/06/21 08:24:01;;;;;;;0.08;0.08;;;19.40;99.90;;;;;;5032804;28;20032;-74
2022/06/21 08:27:02;;;;;;;0.10;0.10;;;19.50;99.90;;;;;;5032765;28;20022;-75
2022/06/21 08:29:38;;;;;;;0.85;0.85;;;19.80;99.90;;;;;;5019277;28;20033;-74
2022/06/21 08:32:11;;;;;;;0.38;0.38;;;19.90;99.90;;;;;;5033138;28;20022;-74
2022/06/21 08:34:46;;;;;;;0.10;0.10;;;20.00;99.90;;;;;;5032564;28;20063;-74
2022/06/21 08:37:19;;;;;;;0.10;0.10;;;19.90;99.90;;;;;;5032428;28;20029;-74
2022/06/21 08:40:00;;;;;;;1.23;0.95;;;19.60;99.90;;;;;;5032616;28;20037;-74
2022/06/21 08:42:49;;;;;;;0.68;0.68;;;19.70;99.90;;;;;;5032594;28;20148;-74
2022/06/21 08:46:01;;;;;;;0.30;0.30;;;19.60;99.90;;;;;;5038691;28;20485;-74
2022/06/21 08:49:03;;;;;;;0.65;0.63;;;19.90;99.90;;;;;;5035011;28;20049;-74
2022/06/21 08:51:35;;;;;;;0.98;0.70;;;20.00;99.90;;;;;;5050901;28;20035;-74
2022/06/21 08:54:41;;;;;;;0.30;0.30;;;20.20;99.90;;;;;;5033279;28;20031;-75
2022/06/21 08:57:41;;;;;;;1.17;1.15;;;20.40;99.90;;;;;;5052320;28;20028;-74
2022/06/21 09:00:08;;;;;;;0.10;0.10;;;20.50;99.90;;;;;;5020889;28;20507;-74
2022/06/21 09:03:08;;;;;;;0.10;0.10;;;20.40;99.90;;;;;;5052148;28;20024;-75
2022/06/21 09:05:52;;;;;;;0.30;0.30;;;20.70;99.90;;;;;;5034208;28;20032;-74
2022/06/21 09:08:46;;;;;;;0.03;0.03;;;21.00;99.90;;;;;;5051798;28;20025;-74
2022/06/21 09:11:24;;;;;;;1.38;0.70;;;21.20;99.90;;;;;;5052003;28;20543;-73
2022/06/21 09:14:10;;;;;;;0.10;0.10;;;21.10;99.90;;;;;;5051871;28;20017;-74
2022/06/21 09:16:47;;;;;;;0.70;0.70;;;20.80;99.90;;;;;;5051599;28;20024;-74
2022/06/21 09:19:32;;;;;;;0.10;0.10;;;20.80;99.90;;;;;;5034044;28;20032;-74
2022/06/21 09:22:16;;;;;;;0.52;0.50;;;20.70;99.90;;;;;;5031252;28;20472;-74
2022/06/21 09:24:46;;;;;;;3.70;1.98;;;20.70;99.90;;;;;;5038089;28;20071;-73
2022/06/21 09:27:16;;;;;;;1.48;0.47;;;20.50;99.90;;;;;;5025795;28;20017;-74
2022/06/21 09:29:55;;;;;;;0.00;0.00;;;20.60;99.90;;;;;;5051728;28;20425;-74
2022/06/21 09:32:33;;;;;;;0.35;0.35;;;21.00;99.90;;;;;;5032436;28;20071;-74
2022/06/21 09:35:25;;;;;;;1.77;1.40;;;21.20;99.90;;;;;;5031835;28;20032;-74
2022/06/21 09:37:54;;;;;;;0.10;0.10;;;21.30;99.90;;;;;;4983880;28;20092;-74
2022/06/21 09:40:23;;;;;;;0.80;0.80;;;21.20;99.90;;;;;;5045917;28;20027;-73
2022/06/21 09:43:31;;;;;;;4.30;1.40;;;21.10;99.90;;;;;;5051371;28;20493;-74
2022/06/21 09:46:21;;;;;;;0.47;0.43;;;21.30;99.90;;;;;;5051475;28;20407;-74
2022/06/21 09:49:13;;;;;;;1.55;1.17;;;21.60;99.90;;;;;;5051376;28;20037;-74
2022/06/21 09:52:04;;;;;;;4.50;3.17;;;21.40;99.90;;;;;;5051175;28;20134;-74
2022/06/21 09:54:39;;;;;;;0.32;0.32;;;21.40;99.90;;;;;;5033664;28;20033;-74
2022/06/21 09:57:07;;;;;;;1.75;0.90;;;21.50;99.90;;;;;;5021298;28;20033;-74
2022/06/21 09:59:54;;;;;;;0.93;0.63;;;21.60;99.90;;;;;;5031590;28;20029;-74
2022/06/21 10:02:40;;;;;;;0.52;0.52;;;21.70;99.90;;;;;;5013689;28;20175;-73
2022/06/21 10:05:22;;;;;;;0.55;0.55;;;21.90;99.90;;;;;;5013730;28;20021;-75
2022/06/21 10:08:15;;;;;;;2.42;1.95;;;21.90;99.90;;;;;;5013197;28;20072;-75
2022/06/21 10:11:10;;;;;;;0.47;0.47;;;22.30;99.90;;;;;;5031455;28;20021;-73
2022/06/21 10:13:52;;;;;;;0.00;0.00;;;22.70;99.90;;;;;;5013985;28;20558;-73
2022/06/21 10:16:29;;;;;;;1.85;1.35;;;23.30;99.90;;;;;;5034661;28;20457;-73
2022/06/21 10:19:01;;;;;;;0.10;0.10;;;23.60;99.90;;;;;;5017149;28;20036;-73
2022/06/21 10:21:38;;;;;;;0.00;0.00;;;23.70;99.90;;;;;;5017582;28;20026;-75
2022/06/21 10:24:19;;;;;;;2.90;1.38;;;24.50;99.20;;;;;;5035611;28;20025;-74
2022/06/21 10:27:27;;;;;;;0.20;0.20;;;24.70;98.10;;;;;;5017204;28;20037;-74
2022/06/21 10:30:16;;;;;;;0.17;0.17;;;24.70;97.20;;;;;;5035785;28;20195;-74
2022/06/21 10:33:08;;;;;;;0.32;0.10;;;24.50;95.80;;;;;;5054802;28;20432;-74
2022/06/21 10:36:01;;;;;;;0.90;0.85;;;24.60;96.10;;;;;;5055169;28;20396;-74
2022/06/21 10:38:45;;;;;;;1.55;0.75;;;24.40;95.40;;;;;;5022854;28;20040;-74
2022/06/21 10:41:39;;;;;;;4.32;1.33;;;23.90;97.00;;;;;;5036695;28;20029;-74
2022/06/21 10:44:32;;;;;;;0.50;0.50;;;23.90;97.00;;;;;;5036995;28;20111;-74
2022/06/21 10:47:04;;;;;;;3.00;2.20;;;23.60;98.30;;;;;;5054441;28;20025;-74
2022/06/21 10:49:43;;;;;;;;;;;23.60;98.20;;;;;;5035589;28;20036;-74
2022/06/21 10:52:30;;;;;;;0.65;0.65;;;23.70;97.70;;;;;;5035378;28;19911;-74
2022/06/21 10:54:56;;;;;;;0.65;0.65;;;24.30;97.00;;;;;;5053219;28;20036;-74
2022/06/21 10:57:53;;;;;;;1.98;0.90;;;24.90;95.20;;;;;;5035652;28;20025;-74
2022/06/21 11:03:35;;;;;;;0.25;0.15;;;25.10;93.30;;;;;;5053999;28;20053;-74
2022/06/21 11:06:19;;;;;;;4.72;0.80;;;25.10;92.40;;;;;;5036684;28;20059;-74
2022/06/21 11:08:54;;;;;;;1.33;1.23;;;25.10;93.00;;;;;;5036326;28;20037;-74
2022/06/21 11:11:28;;;;;;;0.17;0.17;;;25.20;92.80;;;;;;5036423;28;20032;-74
2022/06/21 11:14:19;;;;;;;0.10;0.10;;;25.70;91.80;;;;;;5054516;28;20033;-74
2022/06/21 11:17:24;;;;;;;0.43;0.43;;;25.60;92.00;;;;;;5036108;28;20503;-74
2022/06/21 11:20:11;;;;;;;0.40;0.35;;;25.60;91.00;;;;;;5054127;28;20109;-74
2022/06/21 11:22:37;;;;;;;0.15;0.15;;;25.20;91.40;;;;;;5036179;28;20021;-74
2022/06/21 11:25:05;;;;;;;1.45;0.98;;;25.20;92.00;;;;;;5035961;28;20087;-74
2022/06/21 11:27:54;;;;;;;0.52;0.25;;;25.10;91.80;;;;;;5034770;28;20029;-74
2022/06/21 11:30:36;;;;;;;0.30;0.30;;;25.50;90.70;;;;;;5053881;28;20056;-74
2022/06/21 11:33:28;;;;;;;1.35;0.73;;;25.80;90.10;;;;;;5036319;28;20036;-74
2022/06/21 11:36:05;;;;;;;0.00;0.00;;;25.70;90.50;;;;;;5053789;28;20033;-74
2022/06/21 11:39:11;;;;;;;0.28;0.28;;;25.80;90.00;;;;;;5048891;28;20028;-74
2022/06/21 11:42:06;;;;;;;0.45;0.45;;;26.00;90.30;;;;;;5024894;28;20442;-74
2022/06/21 11:44:40;;;;;;;0.57;0.57;;;26.10;89.80;;;;;;5053777;28;20021;-74
2022/06/21 11:47:10;;;;;;;0.17;0.17;;;25.70;88.40;;;;;;5034609;28;20041;-74
2022/06/21 11:49:40;;;;;;;1.65;1.20;;;25.90;88.40;;;;;;5033927;28;20132;-74
2022/06/21 11:52:18;;;;;;;0.00;0.00;;;25.80;88.80;;;;;;5033558;28;20057;-74
2022/06/21 11:54:53;;;;;;;1.95;1.10;;;25.70;89.00;;;;;;5027300;28;20384;-74
2022/06/21 11:57:32;;;;;;;0.40;0.08;;;25.90;88.50;;;;;;5035376;28;20025;-74
2022/06/21 12:00:15;;;;;;;1.35;0.70;;;25.10;90.20;;;;;;5052628;28;20025;-73
2022/06/21 12:03:02;;;;;;;2.08;1.42;;;24.90;91.00;;;;;;5034223;28;20475;-73
2022/06/21 12:05:42;;;;;;;2.97;1.27;;;25.00;90.70;;;;;;5053077;28;20028;-73
2022/06/21 12:08:08;;;;;;;0.38;0.35;;;25.00;90.50;;;;;;5035000;28;20112;-74
2022/06/21 12:10:59;;;;;;;2.45;0.63;;;25.10;91.20;;;;;;5035269;28;20128;-73
2022/06/21 12:13:48;;;;;;;0.85;0.65;;;25.10;91.20;;;;;;5052837;28;20059;-74
2022/06/21 12:17:08;;;;;;;0.00;0.00;;;25.40;90.70;;;;;;5035149;28;20033;-75
2022/06/21 12:19:44;;;;;;;0.10;0.10;;;25.30;90.50;;;;;;4971758;28;20039;-74
2022/06/21 12:22:12;;;;;;;4.53;1.30;;;25.30;91.10;;;;;;5026609;28;20373;-74
2022/06/21 12:24:38;;;;;;;2.28;1.30;;;25.20;90.60;;;;;;5018692;28;20025;-74
2022/06/21 12:27:09;;;;;;;0.00;0.00;;;24.90;90.80;;;;;;5034843;28;20501;-74
2022/06/21 12:29:34;;;;;;;0.88;0.63;;;25.00;91.40;;;;;;5052481;28;20116;-74
2022/06/21 12:32:04;;;;;;;2.67;1.77;;;25.10;91.50;;;;;;5052803;28;20049;-74
2022/06/21 12:34:41;;;;;;;0.13;0.13;;;25.20;91.70;;;;;;5052815;28;20053;-74
2022/06/21 12:37:20;;;;;;;0.70;0.70;;;25.30;91.20;;;;;;5052095;28;20025;-74
2022/06/21 12:40:10;;;;;;;0.10;0.10;;;25.40;91.30;;;;;;5052377;28;20025;-75
2022/06/21 12:43:17;;;;;;;0.43;0.35;;;25.50;90.80;;;;;;5034800;28;20025;-74
2022/06/21 12:45:53;;;;;;;0.05;0.05;;;25.30;90.40;;;;;;5041762;28;20086;-74
2022/06/21 12:48:50;;;;;;;0.65;0.38;;;25.20;91.30;;;;;;5030368;28;20423;-74
2022/06/21 12:51:44;;;;;;;1.95;1.77;;;25.10;91.70;;;;;;5018944;28;20116;-74
2022/06/21 12:54:38;;;;;;;1.52;1.42;;;25.00;91.30;;;;;;5016081;28;20032;-74
2022/06/21 12:57:20;;;;;;;0.10;0.10;;;24.90;91.00;;;;;;5039468;28;20029;-74
2022/06/21 13:00:22;;;;;;;4.03;2.38;;;25.20;91.80;;;;;;5052053;28;20070;-74
2022/06/21 13:03:23;;;;;;;0.63;0.63;;;25.40;91.20;;;;;;5051776;28;20021;-74
2022/06/21 13:06:11;;;;;;;0.00;0.00;;;25.20;90.60;;;;;;5043135;28;20372;-73
2022/06/21 13:09:04;;;;;;;0.22;0.22;;;25.20;91.10;;;;;;5014225;28;20439;-74
2022/06/21 13:11:51;;;;;;;1.20;1.10;;;25.10;91.20;;;;;;5031982;28;20025;-74
2022/06/21 13:14:28;;;;;;;1.33;0.82;;;25.10;91.40;;;;;;5032070;28;20026;-72
2022/06/21 13:17:28;;;;;;;0.20;0.20;;;25.10;91.50;;;;;;5032018;28;20056;-71
2022/06/21 13:20:20;;;;;;;0.93;0.77;;;25.10;92.00;;;;;;5031328;28;20445;-71
2022/06/21 13:22:54;;;;;;;0.10;0.10;;;24.90;91.70;;;;;;5030185;28;20444;-73
2022/06/21 13:25:53;;;;;;;0.22;0.22;;;25.10;91.80;;;;;;5029899;28;20025;-71
2022/06/21 13:28:46;;;;;;;2.00;1.48;;;25.10;91.70;;;;;;5031306;28;20037;-72
2022/06/21 13:31:23;;;;;;;1.77;0.60;;;25.00;91.60;;;;;;5035102;28;20341;-72
2022/06/21 13:33:55;;;;;;;1.08;0.98;;;24.90;91.80;;;;;;5036008;28;20021;-71
2022/06/21 13:36:46;;;;;;;0.20;0.20;;;24.70;91.40;;;;;;5032597;28;20022;-69
2022/06/21 13:39:39;;;;;;;2.22;1.38;;;24.70;92.00;;;;;;5051470;28;20071;-73
2022/06/21 13:45:12;;;;;;;1.25;0.63;;;25.10;91.70;;;;;;5032057;28;20021;-73
2022/06/21 13:47:42;;;;;;;0.47;0.35;;;25.40;92.10;;;;;;5031579;28;20039;-73
2022/06/21 13:50:17;;;;;;;0.10;0.10;;;25.50;92.00;;;;;;5033817;28;20029;-73
2022/06/21 13:53:04;;;;;;;0.00;0.00;;;25.40;91.20;;;;;;5036805;28;20100;-72
2022/06/21 13:55:53;;;;;;;3.42;1.80;;;25.30;90.50;;;;;;5017926;28;20643;-73
2022/06/21 13:58:22;;;;;;;0.00;0.00;;;25.20;91.10;;;;;;5016314;28;20096;-72